Hyundai Dominion — A8IK7 — position and weather

sailwx.info

Track history (hours):
 
Tides and Currents Weather Stations Pressure Air Temp Water Temp Dewpoint Dewpoint Depression Visibility Wind Speed Wind Dir Waves Ship Positions

Hyundai Dominion

Last reported at 2014-Sep-25 07:25 UTC. Time now 2014-Oct-01 04:03 UTC.
Position S 29°40' E 031°51'.

Length 304 m; draft 11.8 m.

Type: Ship (hazmat cat A). MMSI: 636090990.

Date/timePositionNaut miles runAvg speedWind from/ knotsBaromVisibWave heightAir tempDewpointWater temp
2014-Sep-25 07:25S 29°40' E 031°51'8 9.7
2014-Sep-25 06:33S 29°43' E 031°42'1312.4
2014-Sep-25 05:33S 29°46' E 031°28'1313.0
2014-Sep-25 04:33S 29°49' E 031°13'1010.0
2014-Sep-25 03:33S 29°53' E 031°02'1 0.8
2014-Sep-25 02:33S 29°53' E 031°01'0 0.0
2014-Sep-25 01:32S 29°53' E 031°01'0 0.0
2014-Sep-24 22:32S 29°53' E 031°01'0 0.0
2014-Sep-24 21:26S 29°53' E 031°01'0 0.0
2014-Sep-24 20:08S 29°53' E 031°01'0 0.0
2014-Sep-24 19:26S 29°53' E 031°01'0 0.0
2014-Sep-24 15:26S 29°53' E 031°01'0 0.0
2014-Sep-24 14:20S 29°53' E 031°01'0 0.0
2014-Sep-24 13:26S 29°53' E 031°01'0 0.0
2014-Sep-24 11:20S 29°53' E 031°01'0 0.0
2014-Sep-24 10:20S 29°53' E 031°01'0 0.0
2014-Sep-24 09:26S 29°53' E 031°01'0 0.0
2014-Sep-24 08:14S 29°53' E 031°01'0 0.0
2014-Sep-24 07:08S 29°53' E 031°01'0 0.0
2014-Sep-24 06:08S 29°53' E 031°01'0 0.0
2014-Sep-24 02:32S 29°53' E 031°01'0 0.0
2014-Sep-24 01:32S 29°53' E 031°01'0 0.0
2014-Sep-24 00:26S 29°53' E 031°01'0 0.0
2014-Sep-23 23:20S 29°53' E 031°01'0 0.0
2014-Sep-23 21:32S 29°53' E 031°01'0 0.0
2014-Sep-23 18:14S 29°53' E 031°01'0 0.0
2014-Sep-23 17:32S 29°53' E 031°01'0 0.0
2014-Sep-23 16:32S 29°53' E 031°01'0 0.0
2014-Sep-23 15:26S 29°53' E 031°01'0 0.0
2014-Sep-23 14:32S 29°53' E 031°01'0 0.0
2014-Sep-23 13:26S 29°53' E 031°01'0 0.0
2014-Sep-23 11:32S 29°53' E 031°01'0 0.0
2014-Sep-23 10:20S 29°53' E 031°01'0 0.0
2014-Sep-23 09:07S 29°53' E 031°01'0 0.0
2014-Sep-23 08:32S 29°53' E 031°01'0 0.0
2014-Sep-23 06:13S 29°53' E 031°01'0 0.0
2014-Sep-23 03:13S 29°53' E 031°01'0 0.0
2014-Sep-23 02:19S 29°53' E 031°01'0 0.0
2014-Sep-23 01:07S 29°53' E 031°01'0 0.0
2014-Sep-23 00:13S 29°53' E 031°01'0 0.0
2014-Sep-22 23:31S 29°53' E 031°01'0 0.0
2014-Sep-22 22:31S 29°53' E 031°01'0 0.0
2014-Sep-22 16:07S 29°53' E 031°01'0 0.0
2014-Sep-22 15:25S 29°53' E 031°01'0 0.0
2014-Sep-22 13:19S 29°53' E 031°01'0 0.0
2014-Sep-22 12:31S 29°53' E 031°01'0 0.0
2014-Sep-22 11:31S 29°53' E 031°01'0 0.0
2014-Sep-22 10:19S 29°53' E 031°01'0 0.0
2014-Sep-22 08:30S 29°53' E 031°01'4 4.5
2014-Sep-22 07:33S 29°50' E 031°05'1 1.4
2014-Sep-22 06:32S 29°49' E 031°06'6 6.1
2014-Sep-22 05:33S 29°55' E 031°06'1918.8
2014-Sep-22 04:33S 30°13' E 030°60'23714.8
2014-Sep-21 12:32S 33°13' E 027°59'2316.8
2014-Sep-21 11:12S 33°25' E 027°37'2017.8
2014-Sep-21 10:05S 33°37' E 027°17'  
2014-Sep-18 18:16S 33°48' E 025°41'  
Track history (hours):
 
Tides and Currents Weather Stations Pressure Air Temp Water Temp Dewpoint Dewpoint Depression Visibility Wind Speed Wind Dir Waves Ship Positions

Hyundai Dominion

Last reported at 2014-Sep-25 07:25 UTC. Time now 2014-Oct-01 04:03 UTC.
Position S 29°40' E 031°51'.

Length 304 m; draft 11.8 m.

Type: Ship (hazmat cat A). MMSI: 636090990.

Date/timePositionNaut miles runAvg speedWind from/ knotsBaromVisibWave heightAir tempDewpointWater temp
2014-Sep-25 07:25S 29°40' E 031°51'8 9.7
2014-Sep-25 06:33S 29°43' E 031°42'1312.4
2014-Sep-25 05:33S 29°46' E 031°28'1313.0
2014-Sep-25 04:33S 29°49' E 031°13'1010.0
2014-Sep-25 03:33S 29°53' E 031°02'1 0.8
2014-Sep-25 02:33S 29°53' E 031°01'0 0.0
2014-Sep-25 01:32S 29°53' E 031°01'0 0.0
2014-Sep-24 22:32S 29°53' E 031°01'0 0.0
2014-Sep-24 21:26S 29°53' E 031°01'0 0.0
2014-Sep-24 20:08S 29°53' E 031°01'0 0.0
2014-Sep-24 19:26S 29°53' E 031°01'0 0.0
2014-Sep-24 15:26S 29°53' E 031°01'0 0.0
2014-Sep-24 14:20S 29°53' E 031°01'0 0.0
2014-Sep-24 13:26S 29°53' E 031°01'0 0.0
2014-Sep-24 11:20S 29°53' E 031°01'0 0.0
2014-Sep-24 10:20S 29°53' E 031°01'0 0.0
2014-Sep-24 09:26S 29°53' E 031°01'0 0.0
2014-Sep-24 08:14S 29°53' E 031°01'0 0.0
2014-Sep-24 07:08S 29°53' E 031°01'0 0.0
2014-Sep-24 06:08S 29°53' E 031°01'0 0.0
2014-Sep-24 02:32S 29°53' E 031°01'0 0.0
2014-Sep-24 01:32S 29°53' E 031°01'0 0.0
2014-Sep-24 00:26S 29°53' E 031°01'0 0.0
2014-Sep-23 23:20S 29°53' E 031°01'0 0.0
2014-Sep-23 21:32S 29°53' E 031°01'0 0.0
2014-Sep-23 18:14S 29°53' E 031°01'0 0.0
2014-Sep-23 17:32S 29°53' E 031°01'0 0.0
2014-Sep-23 16:32S 29°53' E 031°01'0 0.0
2014-Sep-23 15:26S 29°53' E 031°01'0 0.0
2014-Sep-23 14:32S 29°53' E 031°01'0 0.0
2014-Sep-23 13:26S 29°53' E 031°01'0 0.0
2014-Sep-23 11:32S 29°53' E 031°01'0 0.0
2014-Sep-23 10:20S 29°53' E 031°01'0 0.0
2014-Sep-23 09:07S 29°53' E 031°01'0 0.0
2014-Sep-23 08:32S 29°53' E 031°01'0 0.0
2014-Sep-23 06:13S 29°53' E 031°01'0 0.0
2014-Sep-23 03:13S 29°53' E 031°01'0 0.0
2014-Sep-23 02:19S 29°53' E 031°01'0 0.0
2014-Sep-23 01:07S 29°53' E 031°01'0 0.0
2014-Sep-23 00:13S 29°53' E 031°01'0 0.0
2014-Sep-22 23:31S 29°53' E 031°01'0 0.0
2014-Sep-22 22:31S 29°53' E 031°01'0 0.0
2014-Sep-22 16:07S 29°53' E 031°01'0 0.0
2014-Sep-22 15:25S 29°53' E 031°01'0 0.0
2014-Sep-22 13:19S 29°53' E 031°01'0 0.0
2014-Sep-22 12:31S 29°53' E 031°01'0 0.0
2014-Sep-22 11:31S 29°53' E 031°01'0 0.0
2014-Sep-22 10:19S 29°53' E 031°01'0 0.0
2014-Sep-22 08:30S 29°53' E 031°01'4 4.5
2014-Sep-22 07:33S 29°50' E 031°05'1 1.4
2014-Sep-22 06:32S 29°49' E 031°06'6 6.1
2014-Sep-22 05:33S 29°55' E 031°06'1918.8
2014-Sep-22 04:33S 30°13' E 030°60'23714.8
2014-Sep-21 12:32S 33°13' E 027°59'2316.8
2014-Sep-21 11:12S 33°25' E 027°37'2017.8
2014-Sep-21 10:05S 33°37' E 027°17'  
2014-Sep-18 18:16S 33°48' E 025°41'  

Dump ship's entire track history